createdAt,value
2023-04-22T00:00:14.444Z,41.52
2023-04-22T00:02:43.852Z,41.73
2023-04-22T00:05:15.183Z,41.73
2023-04-22T00:07:45.644Z,41.92
2023-04-22T00:10:14.231Z,41.99
2023-04-22T00:12:44.013Z,42.00
2023-04-22T00:15:15.752Z,42.16
2023-04-22T00:17:46.064Z,42.86
2023-04-22T00:20:15.116Z,42.41
2023-04-22T00:22:43.459Z,42.35
2023-04-22T00:25:11.779Z,42.37
2023-04-22T00:27:40.094Z,42.51
2023-04-22T00:30:11.036Z,42.38
2023-04-22T00:32:42.099Z,42.50
2023-04-22T00:35:10.632Z,42.53
2023-04-22T00:37:38.995Z,42.72
2023-04-22T00:40:09.432Z,42.71
2023-04-22T00:42:38.809Z,42.89
2023-04-22T00:45:14.262Z,42.86
2023-04-22T00:47:43.368Z,42.76
2023-04-22T00:50:12.227Z,42.91
2023-04-22T00:52:40.792Z,42.85
2023-04-22T00:55:10.338Z,42.86
2023-04-22T00:57:39.662Z,42.79
2023-04-22T01:00:10.316Z,43.00
2023-04-22T01:02:40.275Z,42.96
2023-04-22T01:05:10.552Z,42.95
2023-04-22T01:07:39.003Z,43.08
2023-04-22T01:10:09.058Z,43.09
2023-04-22T01:12:37.386Z,42.88
2023-04-22T01:15:07.664Z,43.04
2023-04-22T01:17:36.776Z,43.26
2023-04-22T01:20:13.404Z,43.24
2023-04-22T01:22:46.120Z,43.25
2023-04-22T01:25:15.880Z,43.21
2023-04-22T01:27:44.775Z,43.27
2023-04-22T01:30:14.196Z,43.28
2023-04-22T01:32:42.912Z,43.46
2023-04-22T01:35:11.806Z,43.48
2023-04-22T01:37:40.679Z,43.63
2023-04-22T01:40:12.847Z,43.58
2023-04-22T01:42:42.879Z,43.54
2023-04-22T01:45:13.191Z,43.62
2023-04-22T01:47:41.569Z,43.80
2023-04-22T01:50:11.360Z,43.86
2023-04-22T01:52:39.759Z,43.74
2023-04-22T01:55:10.315Z,43.96
2023-04-22T01:57:42.357Z,43.73
2023-04-22T02:00:12.448Z,43.98
2023-04-22T02:02:41.272Z,44.09
2023-04-22T02:05:10.863Z,44.12
2023-04-22T02:07:39.307Z,44.03
2023-04-22T02:10:09.452Z,44.05
2023-04-22T02:12:37.799Z,44.03
2023-04-22T02:15:09.211Z,44.28
2023-04-22T02:17:37.878Z,44.46
2023-04-22T02:20:07.929Z,44.35
2023-04-22T02:22:36.756Z,44.38
2023-04-22T02:25:06.092Z,44.47
2023-04-22T02:27:34.395Z,44.39
2023-04-22T02:30:05.350Z,44.55
2023-04-22T02:32:40.039Z,44.55
2023-04-22T02:35:09.639Z,44.64
2023-04-22T02:37:41.302Z,44.79
2023-04-22T02:40:10.596Z,44.74
2023-04-22T02:42:39.078Z,44.93
2023-04-22T02:45:08.922Z,44.93
2023-04-22T02:47:38.685Z,45.08
2023-04-22T02:50:08.927Z,45.03
2023-04-22T02:52:37.249Z,44.99
2023-04-22T02:55:06.326Z,45.19
2023-04-22T02:57:37.710Z,45.17
2023-04-22T03:00:08.098Z,44.95
2023-04-22T03:02:36.807Z,45.35
2023-04-22T03:05:07.587Z,45.40
2023-04-22T03:07:35.945Z,45.26
2023-04-22T03:10:04.609Z,45.43
2023-04-22T03:12:32.898Z,45.40
2023-04-22T03:15:01.180Z,45.39
2023-04-22T03:17:29.479Z,45.49
2023-04-22T03:19:57.788Z,45.34
2023-04-22T03:22:27.504Z,45.60
2023-04-22T03:24:56.075Z,45.37
2023-04-22T03:27:24.336Z,45.40
2023-04-22T03:29:55.751Z,45.46
2023-04-22T03:32:26.698Z,45.12
2023-04-22T03:34:55.003Z,45.33
2023-04-22T03:37:23.339Z,45.29
2023-04-22T03:39:53.034Z,45.62
2023-04-22T03:42:21.375Z,45.39
2023-04-22T03:44:52.039Z,45.41
2023-04-22T03:47:23.007Z,45.47
2023-04-22T03:49:51.365Z,45.40
2023-04-22T03:52:19.705Z,45.46
2023-04-22T03:54:50.099Z,45.59
2023-04-22T03:57:19.805Z,45.63
2023-04-22T03:59:50.895Z,45.67
2023-04-22T04:02:19.360Z,45.72
2023-04-22T04:04:47.961Z,45.75
2023-04-22T04:07:22.631Z,45.86
2023-04-22T04:09:50.992Z,46.02
2023-04-22T04:12:20.752Z,45.99
2023-04-22T04:14:49.078Z,45.99
2023-04-22T04:17:17.475Z,45.99
2023-04-22T04:19:54.733Z,45.93
2023-04-22T04:22:23.187Z,46.02
2023-04-22T04:24:52.496Z,46.05
2023-04-22T04:27:27.514Z,45.92
2023-04-22T04:29:56.033Z,45.92
2023-04-22T04:32:25.079Z,46.05
2023-04-22T04:34:53.990Z,46.08
2023-04-22T04:37:31.108Z,45.90
2023-04-22T04:39:59.842Z,46.17
2023-04-22T04:42:30.578Z,46.19
2023-04-22T04:44:59.599Z,46.31
2023-04-22T04:47:28.464Z,46.48
2023-04-22T04:49:58.560Z,46.37
2023-04-22T04:52:27.095Z,46.32
2023-04-22T04:54:55.383Z,46.49
2023-04-22T04:57:23.746Z,46.61
2023-04-22T04:59:53.464Z,46.84
2023-04-22T05:02:21.879Z,46.75
2023-04-22T05:04:50.655Z,46.93
2023-04-22T05:07:28.005Z,47.00
2023-04-22T05:09:56.308Z,47.10
2023-04-22T05:12:24.619Z,47.18
2023-04-22T05:14:54.926Z,47.28
2023-04-22T05:17:23.474Z,47.37
2023-04-22T05:19:51.840Z,47.30
2023-04-22T05:22:23.573Z,47.17
2023-04-22T05:24:51.835Z,47.43
2023-04-22T05:27:20.459Z,47.54
2023-04-22T05:29:48.881Z,47.51
2023-04-22T05:32:21.713Z,47.46
2023-04-22T05:34:50.088Z,47.77
2023-04-22T05:37:18.390Z,47.77
2023-04-22T05:39:46.717Z,47.84
2023-04-22T05:42:15.077Z,47.98
2023-04-22T05:44:43.388Z,48.20
2023-04-22T05:47:11.741Z,48.24
2023-04-22T05:49:41.856Z,48.41
2023-04-22T05:52:15.938Z,48.51
2023-04-22T05:54:44.244Z,48.66
2023-04-22T05:57:12.830Z,48.74
2023-04-22T05:59:41.390Z,48.97
2023-04-22T06:02:10.036Z,48.96
2023-04-22T06:04:39.188Z,49.01
2023-04-22T06:07:09.158Z,49.03
2023-04-22T06:09:37.881Z,48.72
2023-04-22T06:12:08.802Z,48.93
2023-04-22T06:14:37.137Z,48.97
2023-04-22T06:17:05.570Z,49.01
2023-04-22T06:19:33.897Z,48.79
2023-04-22T06:22:07.227Z,48.77
2023-04-22T06:24:36.934Z,48.75
2023-04-22T06:27:05.364Z,48.50
2023-04-22T06:29:33.692Z,48.65
2023-04-22T06:32:10.345Z,48.40
2023-04-22T06:34:38.742Z,48.27
2023-04-22T06:37:11.207Z,48.01
2023-04-22T06:39:41.240Z,47.97
2023-04-22T06:42:15.457Z,47.81
2023-04-22T06:44:43.789Z,47.71
2023-04-22T06:47:12.092Z,47.50
2023-04-22T06:49:40.781Z,47.50
2023-04-22T06:52:09.578Z,47.29
2023-04-22T06:54:38.433Z,47.25
2023-04-22T06:57:08.923Z,47.08
2023-04-22T06:59:37.331Z,46.83
2023-04-22T07:02:11.197Z,46.48
2023-04-22T07:04:42.623Z,45.68
2023-04-22T07:07:11.099Z,45.23
2023-04-22T07:09:39.706Z,44.71
2023-04-22T07:12:09.751Z,44.51
2023-04-22T07:14:38.829Z,43.93
2023-04-22T07:17:10.038Z,43.69
2023-04-22T07:19:38.948Z,43.59
2023-04-22T07:22:09.903Z,43.42
2023-04-22T07:24:38.731Z,43.11
2023-04-22T07:27:07.182Z,42.84
2023-04-22T07:29:37.112Z,42.79
2023-04-22T07:32:06.604Z,42.32
2023-04-22T07:34:42.898Z,42.23
2023-04-22T07:37:11.228Z,42.42
2023-04-22T07:39:39.832Z,42.53
2023-04-22T07:42:11.856Z,41.92
2023-04-22T07:44:41.764Z,42.01
2023-04-22T07:47:10.364Z,42.00
2023-04-22T07:49:38.956Z,41.35
2023-04-22T07:52:07.362Z,40.78
2023-04-22T07:54:35.670Z,40.91
2023-04-22T07:57:03.958Z,40.56
2023-04-22T07:59:32.261Z,40.11
2023-04-22T08:02:04.711Z,39.75
2023-04-22T08:04:33.205Z,39.65
2023-04-22T08:07:09.284Z,39.30
2023-04-22T08:09:45.783Z,39.30
2023-04-22T08:12:20.342Z,38.91
2023-04-22T08:14:48.688Z,38.84
2023-04-22T08:17:21.817Z,38.24
2023-04-22T08:19:50.403Z,37.91
2023-04-22T08:22:18.939Z,37.66
2023-04-22T08:24:47.222Z,37.58
2023-04-22T08:27:15.619Z,37.79
2023-04-22T08:29:44.230Z,37.41
2023-04-22T08:32:12.665Z,36.69
2023-04-22T08:34:42.305Z,35.96
2023-04-22T08:37:10.658Z,35.74
2023-04-22T08:39:39.189Z,35.64
2023-04-22T08:42:07.896Z,35.92
2023-04-22T08:44:37.291Z,35.71
2023-04-22T08:47:06.599Z,35.56
2023-04-22T08:49:37.212Z,35.24
2023-04-22T08:52:09.451Z,35.20
2023-04-22T08:54:37.763Z,35.42
2023-04-22T08:57:06.561Z,35.16
2023-04-22T08:59:36.824Z,35.22
2023-04-22T09:02:08.721Z,34.51
2023-04-22T09:04:37.173Z,34.09
2023-04-22T09:07:07.838Z,34.04
2023-04-22T09:09:36.345Z,33.67
2023-04-22T09:12:07.800Z,33.29
2023-04-22T09:14:36.401Z,33.70
2023-04-22T09:17:05.002Z,33.19
2023-04-22T09:19:33.466Z,33.50
2023-04-22T09:22:02.047Z,32.61
2023-04-22T09:24:31.940Z,32.00
2023-04-22T09:27:03.992Z,32.19
2023-04-22T09:29:32.639Z,31.98
2023-04-22T09:32:01.571Z,32.39
2023-04-22T09:34:29.867Z,32.38
2023-04-22T09:36:58.252Z,31.91
2023-04-22T09:39:26.641Z,31.79
2023-04-22T09:41:57.789Z,31.47
2023-04-22T09:44:29.274Z,30.96
2023-04-22T09:46:57.680Z,31.02
2023-04-22T09:49:29.047Z,30.80
2023-04-22T09:51:59.107Z,30.20
2023-04-22T09:54:27.461Z,30.03
2023-04-22T09:56:57.265Z,29.77
2023-04-22T09:59:28.184Z,29.49
2023-04-22T10:02:00.208Z,29.41
2023-04-22T10:04:28.810Z,29.48
2023-04-22T10:06:57.397Z,29.48
2023-04-22T10:09:26.761Z,28.53
2023-04-22T10:11:59.210Z,27.94
2023-04-22T10:14:28.169Z,28.08
2023-04-22T10:17:02.406Z,27.53
2023-04-22T10:19:31.219Z,26.73
2023-04-22T10:22:03.295Z,26.55
2023-04-22T10:24:37.697Z,26.57
2023-04-22T10:27:10.832Z,26.26
2023-04-22T10:29:42.567Z,25.64
2023-04-22T10:32:27.175Z,26.64
2023-04-22T10:35:16.558Z,26.60
2023-04-22T10:37:46.361Z,25.64
2023-04-22T10:40:18.298Z,25.90
2023-04-22T10:42:53.411Z,25.37
2023-04-22T10:45:26.623Z,25.17
2023-04-22T10:47:55.089Z,24.61
2023-04-22T10:50:26.671Z,25.21
2023-04-22T10:52:58.837Z,24.30
2023-04-22T10:55:31.645Z,25.17
2023-04-22T10:58:01.394Z,25.34
2023-04-22T11:00:53.150Z,25.61
2023-04-22T11:03:29.058Z,25.32
2023-04-22T11:06:18.456Z,23.32
2023-04-22T11:08:50.089Z,25.67
2023-04-22T11:11:21.075Z,25.34
2023-04-22T11:13:51.945Z,25.54
2023-04-22T11:16:23.703Z,25.72
2023-04-22T11:18:52.110Z,26.01
2023-04-22T11:21:21.928Z,25.13
2023-04-22T11:23:53.030Z,24.83
2023-04-22T11:26:35.970Z,25.62
2023-04-22T11:29:05.789Z,24.89
2023-04-22T11:31:34.566Z,25.35
2023-04-22T11:34:02.985Z,25.85
2023-04-22T11:36:31.608Z,25.86
2023-04-22T11:39:00.520Z,26.18
2023-04-22T11:41:30.078Z,25.22
2023-04-22T11:43:58.578Z,24.63
2023-04-22T11:46:38.464Z,24.58
2023-04-22T11:49:15.213Z,24.53
2023-04-22T11:51:57.653Z,25.43
2023-04-22T11:54:43.721Z,24.17
2023-04-22T11:57:15.729Z,23.61
2023-04-22T11:59:44.370Z,24.11
2023-04-22T12:02:14.179Z,24.62
2023-04-22T12:04:43.167Z,23.59
2023-04-22T12:07:11.728Z,22.91
2023-04-22T12:09:41.637Z,22.89
2023-04-22T12:12:10.229Z,23.23
2023-04-22T12:14:38.749Z,23.67
2023-04-22T12:17:10.703Z,23.69
2023-04-22T12:19:41.048Z,23.65
2023-04-22T12:22:09.722Z,24.17
2023-04-22T12:24:38.051Z,23.55
2023-04-22T12:27:06.463Z,23.04
2023-04-22T12:29:35.782Z,23.53
2023-04-22T12:32:04.162Z,23.41
2023-04-22T12:34:32.552Z,23.25
2023-04-22T12:37:02.312Z,23.21
2023-04-22T12:39:30.668Z,22.69
2023-04-22T12:41:59.099Z,23.13
2023-04-22T12:44:27.454Z,22.93
2023-04-22T12:46:55.871Z,22.78
2023-04-22T12:49:24.283Z,23.26
2023-04-22T12:51:52.815Z,22.83
2023-04-22T12:54:22.818Z,22.99
2023-04-22T12:56:57.880Z,22.73
2023-04-22T12:59:26.557Z,22.47
2023-04-22T13:01:55.803Z,22.33
2023-04-22T13:04:24.410Z,22.75
2023-04-22T13:06:57.289Z,22.70
2023-04-22T13:09:27.522Z,22.53
2023-04-22T13:11:55.935Z,22.57
2023-04-22T13:14:24.291Z,22.29
2023-04-22T13:16:54.245Z,21.94
2023-04-22T13:19:25.622Z,21.68
2023-04-22T13:21:54.053Z,22.70
2023-04-22T13:24:22.448Z,21.75
2023-04-22T13:26:55.256Z,22.23
2023-04-22T13:29:23.686Z,21.61
2023-04-22T13:31:52.213Z,21.88
2023-04-22T13:34:20.648Z,22.05
2023-04-22T13:36:49.108Z,21.51
2023-04-22T13:39:17.806Z,21.48
2023-04-22T13:41:46.376Z,21.57
2023-04-22T13:44:16.356Z,21.60
2023-04-22T13:46:50.105Z,21.84
2023-04-22T13:49:18.505Z,21.67
2023-04-22T13:51:46.823Z,21.28
2023-04-22T13:54:15.254Z,20.69
2023-04-22T13:56:43.669Z,21.28
2023-04-22T13:59:12.077Z,21.90
2023-04-22T14:01:41.812Z,21.79
2023-04-22T14:04:12.456Z,21.75
2023-04-22T14:06:45.114Z,22.34
2023-04-22T14:09:13.513Z,21.40
2023-04-22T14:11:41.987Z,21.64
2023-04-22T14:14:10.418Z,21.40
2023-04-22T14:16:46.106Z,21.19
2023-04-22T14:19:15.621Z,20.82
2023-04-22T14:21:44.050Z,20.85
2023-04-22T14:24:12.504Z,20.89
2023-04-22T14:26:41.157Z,21.24
2023-04-22T14:29:09.672Z,21.29
2023-04-22T14:31:38.068Z,22.08
2023-04-22T14:34:07.876Z,22.03
2023-04-22T14:36:36.660Z,22.18
2023-04-22T14:39:05.149Z,22.08
2023-04-22T14:41:33.677Z,21.71
2023-04-22T14:44:02.154Z,22.01
2023-04-22T14:46:31.023Z,21.72
2023-04-22T14:48:59.448Z,21.48
2023-04-22T14:51:30.022Z,22.30
2023-04-22T14:53:58.607Z,22.24
2023-04-22T14:56:27.320Z,22.12
2023-04-22T14:58:55.717Z,22.52
2023-04-22T15:01:24.273Z,22.44
2023-04-22T15:03:52.866Z,22.74
2023-04-22T15:06:21.488Z,22.72
2023-04-22T15:08:52.546Z,22.53
2023-04-22T15:11:21.165Z,22.88
2023-04-22T15:13:49.639Z,22.03
2023-04-22T15:16:18.065Z,22.37
2023-04-22T15:18:46.584Z,22.69
2023-04-22T15:21:15.061Z,22.55
2023-04-22T15:23:43.485Z,22.08
2023-04-22T15:26:15.186Z,22.82
2023-04-22T15:28:43.682Z,22.44
2023-04-22T15:31:12.133Z,22.13
2023-04-22T15:33:40.594Z,22.02
2023-04-22T15:36:09.754Z,21.66
2023-04-22T15:38:38.617Z,21.42
2023-04-22T15:41:07.124Z,21.30
2023-04-22T15:43:36.879Z,21.43
2023-04-22T15:46:05.706Z,21.77
2023-04-22T15:48:34.141Z,21.35
2023-04-22T15:51:02.486Z,21.42
2023-04-22T15:53:31.025Z,21.14
2023-04-22T15:55:59.440Z,21.42
2023-04-22T15:58:29.009Z,21.31
2023-04-22T16:01:11.456Z,20.95
2023-04-22T16:03:47.229Z,20.78
2023-04-22T16:06:16.622Z,21.18
2023-04-22T16:08:45.551Z,21.35
2023-04-22T16:11:15.674Z,21.41
2023-04-22T16:13:44.450Z,20.94
2023-04-22T16:16:14.207Z,21.54
2023-04-22T16:18:44.324Z,21.06
2023-04-22T16:21:13.009Z,20.92
2023-04-22T16:23:41.764Z,21.32
2023-04-22T16:26:10.828Z,21.62
2023-04-22T16:28:39.275Z,21.64
2023-04-22T16:31:08.912Z,21.65
2023-04-22T16:33:38.748Z,21.69
2023-04-22T16:36:08.986Z,21.84
2023-04-22T16:38:37.500Z,21.50
2023-04-22T16:41:06.188Z,22.06
2023-04-22T16:43:34.622Z,22.07
2023-04-22T16:46:05.767Z,22.08
2023-04-22T16:48:34.149Z,22.17
2023-04-22T16:51:03.959Z,22.21
2023-04-22T16:53:32.558Z,22.47
2023-04-22T16:56:00.986Z,22.39
2023-04-22T16:58:30.061Z,22.03
2023-04-22T17:00:58.456Z,22.48
2023-04-22T17:03:27.509Z,22.39
2023-04-22T17:05:56.223Z,22.55
2023-04-22T17:08:25.912Z,22.57
2023-04-22T17:10:54.319Z,22.87
2023-04-22T17:13:22.676Z,22.47
2023-04-22T17:15:51.098Z,22.73
2023-04-22T17:18:19.464Z,23.34
2023-04-22T17:20:49.094Z,23.17
2023-04-22T17:23:17.587Z,24.02
2023-04-22T17:25:47.973Z,24.17
2023-04-22T17:28:16.706Z,23.92
2023-04-22T17:30:45.277Z,23.49
2023-04-22T17:33:13.688Z,23.92
2023-04-22T17:35:42.211Z,23.85
2023-04-22T17:38:10.576Z,23.72
2023-04-22T17:40:39.581Z,23.71
2023-04-22T17:43:09.314Z,24.20
2023-04-22T17:45:40.608Z,24.43
2023-04-22T17:48:09.087Z,24.76
2023-04-22T17:50:37.528Z,24.96
2023-04-22T17:53:05.902Z,24.99
2023-04-22T17:55:35.366Z,25.39
2023-04-22T17:58:03.805Z,25.82
2023-04-22T18:00:37.617Z,26.18
2023-04-22T18:03:06.914Z,26.16
2023-04-22T18:05:45.670Z,26.57
2023-04-22T18:08:14.105Z,26.69
2023-04-22T18:10:42.526Z,26.71
2023-04-22T18:13:10.877Z,26.95
2023-04-22T18:15:40.727Z,27.28
2023-04-22T18:18:09.058Z,27.43
2023-04-22T18:20:37.552Z,27.73
2023-04-22T18:23:05.951Z,27.99
2023-04-22T18:25:36.457Z,28.42
2023-04-22T18:28:05.005Z,28.58
2023-04-22T18:30:33.539Z,28.57
2023-04-22T18:33:04.748Z,28.92
2023-04-22T18:35:36.780Z,29.31
2023-04-22T18:38:05.241Z,29.08
2023-04-22T18:40:33.715Z,29.32
2023-04-22T18:43:02.219Z,30.01
2023-04-22T18:45:30.653Z,29.86
2023-04-22T18:47:59.462Z,30.14
2023-04-22T18:50:29.328Z,30.33
2023-04-22T18:52:57.747Z,30.42
2023-04-22T18:55:28.161Z,30.76
2023-04-22T18:57:56.539Z,31.14
2023-04-22T19:00:25.004Z,31.27
2023-04-22T19:02:53.552Z,31.09
2023-04-22T19:05:25.637Z,30.95
2023-04-22T19:07:55.393Z,31.17
2023-04-22T19:10:23.849Z,31.36
2023-04-22T19:12:53.240Z,31.41
2023-04-22T19:15:21.859Z,31.71
2023-04-22T19:17:50.555Z,32.29
2023-04-22T19:20:19.127Z,31.88
2023-04-22T19:22:47.500Z,31.88
2023-04-22T19:25:18.772Z,32.47
2023-04-22T19:27:47.192Z,32.30
2023-04-22T19:30:16.426Z,32.67
2023-04-22T19:32:44.862Z,33.08
2023-04-22T19:35:16.337Z,32.90
2023-04-22T19:37:45.730Z,32.77
2023-04-22T19:40:18.423Z,32.81
2023-04-22T19:42:47.174Z,32.79
2023-04-22T19:45:16.844Z,32.85
2023-04-22T19:47:45.900Z,33.14
2023-04-22T19:50:16.689Z,33.05
2023-04-22T19:52:47.852Z,33.21
2023-04-22T19:55:18.140Z,33.61
2023-04-22T19:57:47.131Z,33.49
2023-04-22T20:00:16.685Z,33.28
2023-04-22T20:02:45.933Z,33.57
2023-04-22T20:05:15.705Z,33.78
2023-04-22T20:07:45.388Z,34.05
2023-04-22T20:10:16.506Z,34.17
2023-04-22T20:12:45.981Z,34.10
2023-04-22T20:15:15.185Z,34.03
2023-04-22T20:17:44.548Z,34.32
2023-04-22T20:20:15.461Z,34.27
2023-04-22T20:22:45.767Z,34.41
2023-04-22T20:25:18.101Z,34.73
2023-04-22T20:27:47.019Z,34.89
2023-04-22T20:30:16.051Z,34.82
2023-04-22T20:32:44.801Z,34.95
2023-04-22T20:35:16.482Z,35.24
2023-04-22T20:37:47.288Z,35.32
2023-04-22T20:40:18.951Z,35.66
2023-04-22T20:42:47.665Z,35.83
2023-04-22T20:45:17.933Z,35.82
2023-04-22T20:47:46.547Z,35.76
2023-04-22T20:50:16.010Z,36.31
2023-04-22T20:52:44.441Z,36.15
2023-04-22T20:55:12.851Z,36.46
2023-04-22T20:57:43.276Z,36.38
2023-04-22T21:00:13.001Z,36.71
2023-04-22T21:02:41.854Z,36.59
2023-04-22T21:05:13.123Z,36.80
2023-04-22T21:07:42.203Z,36.44
2023-04-22T21:10:12.082Z,37.46
2023-04-22T21:12:42.823Z,38.08
2023-04-22T21:15:13.092Z,38.44
2023-04-22T21:17:44.587Z,38.63
2023-04-22T21:20:14.164Z,38.59
2023-04-22T21:22:44.854Z,39.06
2023-04-22T21:25:19.189Z,39.11
2023-04-22T21:27:50.356Z,39.16
2023-04-22T21:30:20.110Z,39.46
2023-04-22T21:32:48.604Z,39.68
2023-04-22T21:35:17.760Z,39.58
2023-04-22T21:37:46.431Z,40.37
2023-04-22T21:40:14.986Z,40.38
2023-04-22T21:42:43.932Z,40.02
2023-04-22T21:45:13.858Z,39.84
2023-04-22T21:47:42.604Z,40.87
2023-04-22T21:50:12.250Z,40.50
2023-04-22T21:52:41.030Z,40.46
2023-04-22T21:55:11.553Z,41.08
2023-04-22T21:57:40.287Z,41.30
2023-04-22T22:00:18.514Z,41.38
2023-04-22T22:02:49.530Z,40.93
2023-04-22T22:05:18.135Z,41.07
2023-04-22T22:07:46.678Z,40.99
2023-04-22T22:10:19.282Z,41.09
2023-04-22T22:12:48.256Z,40.68
2023-04-22T22:15:17.310Z,40.46
2023-04-22T22:17:47.599Z,40.46
2023-04-22T22:20:20.173Z,40.44
2023-04-22T22:22:49.437Z,40.48
2023-04-22T22:25:18.046Z,40.93
2023-04-22T22:27:49.115Z,41.41
2023-04-22T22:30:20.549Z,41.83
2023-04-22T22:32:50.600Z,42.04
2023-04-22T22:35:19.278Z,41.95
2023-04-22T22:37:47.693Z,41.89
2023-04-22T22:40:16.495Z,41.87
2023-04-22T22:42:44.883Z,42.00
2023-04-22T22:45:13.585Z,41.69
2023-04-22T22:47:42.065Z,41.73
2023-04-22T22:50:12.562Z,41.66
2023-04-22T22:52:41.157Z,41.61
2023-04-22T22:55:10.381Z,41.85
2023-04-22T22:57:38.726Z,41.85
2023-04-22T23:00:09.550Z,42.05
2023-04-22T23:02:38.097Z,42.08
2023-04-22T23:05:10.632Z,42.76
2023-04-22T23:07:41.224Z,42.65
2023-04-22T23:10:10.901Z,42.80
2023-04-22T23:12:39.317Z,42.89
2023-04-22T23:15:09.620Z,43.30
2023-04-22T23:17:38.194Z,43.14
2023-04-22T23:20:09.668Z,43.08
2023-04-22T23:22:40.942Z,43.12
2023-04-22T23:25:11.297Z,43.43
2023-04-22T23:27:40.642Z,43.43
2023-04-22T23:30:10.934Z,43.17
2023-04-22T23:32:41.591Z,43.03
2023-04-22T23:35:16.536Z,43.00
2023-04-22T23:37:46.944Z,43.32
2023-04-22T23:40:15.492Z,43.43
2023-04-22T23:42:43.939Z,43.19
2023-04-22T23:45:13.394Z,43.10
2023-04-22T23:47:42.093Z,42.83
2023-04-22T23:50:14.157Z,42.77
2023-04-22T23:52:42.753Z,43.04
2023-04-22T23:55:15.930Z,43.04
2023-04-22T23:57:45.169Z,43.15
